createdAt,value
2018-09-03T00:01:11.154Z,100.00
2018-09-03T00:03:40.212Z,100.00
2018-09-03T00:06:09.172Z,100.00
2018-09-03T00:08:38.244Z,100.00
2018-09-03T00:11:07.209Z,100.00
2018-09-03T00:13:36.222Z,100.00
2018-09-03T00:16:05.380Z,100.00
2018-09-03T00:18:34.323Z,100.00
2018-09-03T00:21:03.408Z,100.00
2018-09-03T00:23:32.477Z,100.00
2018-09-03T00:26:01.481Z,100.00
2018-09-03T00:28:30.488Z,100.00
2018-09-03T00:31:05.114Z,100.00
2018-09-03T00:33:39.374Z,100.00
2018-09-03T00:36:13.719Z,100.00
2018-09-03T00:38:48.234Z,100.00
2018-09-03T00:41:22.750Z,100.00
2018-09-03T00:43:57.101Z,100.00
2018-09-03T00:46:31.593Z,100.00
2018-09-03T00:49:00.619Z,100.00
2018-09-03T00:51:29.581Z,100.00
2018-09-03T00:53:58.681Z,100.00
2018-09-03T00:56:27.661Z,100.00
2018-09-03T00:58:56.731Z,100.00
2018-09-03T01:01:25.901Z,100.00
2018-09-03T01:03:55.011Z,100.00
2018-09-03T01:06:23.962Z,100.00
2018-09-03T01:08:52.892Z,100.00
2018-09-03T01:11:24.612Z,100.00
2018-09-03T01:13:54.426Z,100.00
2018-09-03T01:16:23.521Z,100.00
2018-09-03T01:18:56.431Z,100.00
2018-09-03T01:21:26.320Z,100.00
2018-09-03T01:23:55.618Z,100.00
2018-09-03T01:26:24.617Z,100.00
2018-09-03T01:28:53.559Z,100.00
2018-09-03T01:31:22.704Z,100.00
2018-09-03T01:33:52.943Z,100.00
2018-09-03T01:36:22.172Z,100.00
2018-09-03T01:38:51.128Z,100.00
2018-09-03T01:41:20.556Z,100.00
2018-09-03T01:44:53.004Z,100.00
2018-09-03T01:47:21.984Z,100.00
2018-09-03T01:49:50.923Z,100.00
2018-09-03T01:52:19.913Z,100.00
2018-09-03T01:54:48.892Z,100.00
2018-09-03T01:57:17.846Z,100.00
2018-09-03T01:59:47.086Z,100.00
2018-09-03T02:02:16.081Z,100.00
2018-09-03T02:04:45.028Z,100.00
2018-09-03T02:07:14.142Z,100.00
2018-09-03T02:09:43.127Z,100.00
2018-09-03T02:12:12.130Z,100.00
2018-09-03T02:14:42.273Z,100.00
2018-09-03T02:17:12.449Z,100.00
2018-09-03T02:19:42.073Z,100.00
2018-09-03T02:22:11.100Z,100.00
2018-09-03T02:24:40.074Z,100.00
2018-09-03T02:27:09.061Z,100.00
2018-09-03T02:29:38.027Z,100.00
2018-09-03T02:32:07.084Z,100.00
2018-09-03T02:34:36.114Z,100.00
2018-09-03T02:37:05.220Z,100.00
2018-09-03T02:39:34.168Z,100.00
2018-09-03T02:42:03.112Z,100.00
2018-09-03T02:44:32.114Z,100.00
2018-09-03T02:47:01.181Z,100.00
2018-09-03T02:49:30.151Z,100.00
2018-09-03T02:51:59.189Z,100.00
2018-09-03T02:54:28.182Z,100.00
2018-09-03T02:56:57.174Z,100.00
2018-09-03T02:59:26.141Z,100.00
2018-09-03T03:01:55.101Z,100.00
2018-09-03T03:04:24.081Z,100.00
2018-09-03T03:06:53.041Z,100.00
2018-09-03T03:09:22.139Z,100.00
2018-09-03T03:11:51.131Z,100.00
2018-09-03T03:14:20.100Z,100.00
2018-09-03T03:16:49.049Z,100.00
2018-09-03T03:19:18.072Z,100.00
2018-09-03T03:21:47.063Z,100.00
2018-09-03T03:24:16.035Z,100.00
2018-09-03T03:26:45.011Z,100.00
2018-09-03T03:29:14.021Z,100.00
2018-09-03T03:31:43.031Z,100.00
2018-09-03T03:34:12.031Z,100.00
2018-09-03T03:36:41.100Z,100.00
2018-09-03T03:39:10.225Z,100.00
2018-09-03T03:44:13.381Z,100.00
2018-09-03T03:46:42.333Z,100.00
2018-09-03T03:49:11.333Z,100.00
2018-09-03T03:51:40.275Z,100.00
2018-09-03T03:54:09.309Z,100.00
2018-09-03T03:56:38.347Z,100.00
2018-09-03T03:59:07.454Z,100.00
2018-09-03T04:01:36.709Z,100.00
2018-09-03T04:04:05.902Z,100.00
2018-09-03T04:06:34.876Z,100.00
2018-09-03T04:09:04.779Z,100.00
2018-09-03T04:11:35.325Z,100.00
2018-09-03T04:14:08.656Z,100.00
2018-09-03T04:16:37.675Z,100.00
2018-09-03T04:19:06.670Z,100.00
2018-09-03T04:21:35.673Z,100.00
2018-09-03T04:24:05.654Z,100.00
2018-09-03T04:26:34.628Z,100.00
2018-09-03T04:29:03.614Z,100.00
2018-09-03T04:31:32.582Z,100.00
2018-09-03T04:34:01.670Z,100.00
2018-09-03T04:36:30.712Z,100.00
2018-09-03T04:38:59.649Z,100.00
2018-09-03T04:41:28.637Z,100.00
2018-09-03T04:43:57.606Z,100.00
2018-09-03T04:46:26.555Z,100.00
2018-09-03T04:48:55.562Z,100.00
2018-09-03T04:51:24.917Z,100.00
2018-09-03T04:53:56.026Z,100.00
2018-09-03T04:56:24.990Z,100.00
2018-09-03T04:58:54.123Z,100.00
2018-09-03T05:01:23.268Z,100.00
2018-09-03T05:03:52.251Z,100.00
2018-09-03T05:06:21.495Z,100.00
2018-09-03T05:08:50.611Z,100.00
2018-09-03T05:11:19.693Z,100.00
2018-09-03T05:13:48.723Z,100.00
2018-09-03T05:16:17.714Z,100.00
2018-09-03T05:18:46.858Z,100.00
2018-09-03T05:21:15.953Z,100.00
2018-09-03T05:23:44.902Z,100.00
2018-09-03T05:26:13.879Z,100.00
2018-09-03T05:28:42.839Z,100.00
2018-09-03T05:31:11.888Z,100.00
2018-09-03T05:33:40.842Z,100.00
2018-09-03T05:36:09.898Z,100.00
2018-09-03T05:38:38.936Z,100.00
2018-09-03T05:41:07.920Z,100.00
2018-09-03T05:43:37.027Z,100.00
2018-09-03T05:46:06.078Z,100.00
2018-09-03T05:48:35.032Z,100.00
2018-09-03T05:51:04.076Z,100.00
2018-09-03T05:53:33.019Z,100.00
2018-09-03T05:56:01.965Z,100.00
2018-09-03T05:58:31.104Z,100.00
2018-09-03T06:01:00.785Z,100.00
2018-09-03T06:03:29.738Z,100.00
2018-09-03T06:05:58.732Z,100.00
2018-09-03T06:08:27.751Z,100.00
2018-09-03T06:10:56.792Z,100.00
2018-09-03T06:13:25.711Z,100.00
2018-09-03T06:15:54.673Z,100.00
2018-09-03T06:18:23.652Z,100.00
2018-09-03T06:20:52.639Z,100.00
2018-09-03T06:23:21.631Z,100.00
2018-09-03T06:25:50.579Z,100.00
2018-09-03T06:28:19.672Z,100.00
2018-09-03T06:30:48.666Z,100.00
2018-09-03T06:33:17.663Z,100.00
2018-09-03T06:35:46.624Z,100.00
2018-09-03T06:38:15.568Z,100.00
2018-09-03T06:40:44.590Z,100.00
2018-09-03T06:43:13.615Z,100.00
2018-09-03T06:45:42.571Z,100.00
2018-09-03T06:48:11.535Z,100.00
2018-09-03T06:50:40.524Z,100.00
2018-09-03T06:53:09.473Z,100.00
2018-09-03T06:55:38.732Z,99.94
2018-09-03T06:58:07.812Z,100.00
2018-09-03T07:00:36.831Z,100.00
2018-09-03T07:03:05.811Z,100.00
2018-09-03T07:05:34.854Z,98.68
2018-09-03T07:08:03.898Z,99.04
2018-09-03T07:10:32.897Z,98.24
2018-09-03T07:13:05.322Z,98.93
2018-09-03T07:15:34.429Z,96.74
2018-09-03T07:18:03.730Z,95.58
2018-09-03T07:20:32.693Z,95.08
2018-09-03T07:23:01.688Z,94.87
2018-09-03T07:25:30.651Z,94.67
2018-09-03T07:27:59.830Z,92.84
2018-09-03T07:30:28.815Z,94.54
2018-09-03T07:32:57.787Z,94.11
2018-09-03T07:35:26.776Z,94.29
2018-09-03T07:37:55.832Z,95.64
2018-09-03T07:40:24.804Z,94.33
2018-09-03T07:42:53.779Z,93.24
2018-09-03T07:45:22.760Z,93.39
2018-09-03T07:47:51.682Z,93.38
2018-09-03T07:50:20.662Z,93.79
2018-09-03T07:52:49.601Z,93.49
2018-09-03T07:55:18.650Z,92.42
2018-09-03T07:57:47.615Z,90.43
2018-09-03T08:00:16.613Z,89.18
2018-09-03T08:02:45.723Z,89.20
2018-09-03T08:05:14.710Z,89.04
2018-09-03T08:07:43.642Z,84.04
2018-09-03T08:10:12.606Z,80.74
2018-09-03T08:12:41.559Z,80.47
2018-09-03T08:15:10.658Z,80.33
2018-09-03T08:17:39.667Z,74.53
2018-09-03T08:20:08.746Z,70.00
2018-09-03T08:22:37.772Z,67.52
2018-09-03T08:25:06.755Z,64.37
2018-09-03T08:27:35.873Z,64.51
2018-09-03T08:30:05.467Z,61.60
2018-09-03T08:32:34.453Z,60.11
2018-09-03T08:35:03.462Z,61.27
2018-09-03T08:37:32.579Z,56.24
2018-09-03T08:40:01.571Z,53.76
2018-09-03T08:42:30.498Z,57.03
2018-09-03T08:44:59.562Z,54.37
2018-09-03T08:47:28.544Z,58.59
2018-09-03T08:49:57.572Z,55.67
2018-09-03T08:52:26.551Z,54.08
2018-09-03T08:54:55.628Z,54.92
2018-09-03T08:57:24.573Z,54.62
2018-09-03T08:59:53.584Z,54.85
2018-09-03T09:02:22.567Z,54.96
2018-09-03T09:04:51.637Z,58.75
2018-09-03T09:07:20.715Z,56.88
2018-09-03T09:09:50.634Z,58.06
2018-09-03T09:12:20.004Z,52.88
2018-09-03T09:14:49.022Z,47.77
2018-09-03T09:17:17.990Z,47.34
2018-09-03T09:19:46.965Z,50.65
2018-09-03T09:22:15.952Z,52.44
2018-09-03T09:24:44.959Z,51.00
2018-09-03T09:27:13.955Z,55.60
2018-09-03T09:29:42.947Z,54.88
2018-09-03T09:32:11.900Z,54.75
2018-09-03T09:34:40.943Z,51.41
2018-09-03T09:37:09.877Z,52.92
2018-09-03T09:39:38.816Z,51.73
2018-09-03T09:42:07.783Z,55.05
2018-09-03T09:44:36.733Z,53.95
2018-09-03T09:47:05.726Z,53.83
2018-09-03T09:49:34.701Z,53.27
2018-09-03T09:52:03.689Z,55.19
2018-09-03T09:54:32.667Z,47.19
2018-09-03T09:57:01.689Z,48.23
2018-09-03T09:59:30.700Z,48.05
2018-09-03T10:01:59.653Z,47.98
2018-09-03T10:04:28.630Z,47.11
2018-09-03T10:06:57.622Z,52.31
2018-09-03T10:09:26.680Z,49.96
2018-09-03T10:11:55.659Z,55.74
2018-09-03T10:14:24.625Z,56.59
2018-09-03T10:16:53.675Z,54.62
2018-09-03T10:19:22.587Z,54.25
2018-09-03T10:21:51.721Z,55.06
2018-09-03T10:24:20.678Z,56.84
2018-09-03T10:26:49.645Z,56.79
2018-09-03T10:29:18.589Z,57.15
2018-09-03T10:31:47.648Z,58.39
2018-09-03T10:34:16.546Z,59.88
2018-09-03T10:36:45.511Z,58.26
2018-09-03T10:39:14.458Z,57.78
2018-09-03T10:41:43.403Z,54.88
2018-09-03T10:44:12.368Z,56.28
2018-09-03T10:46:41.344Z,55.82
2018-09-03T10:49:10.773Z,53.48
2018-09-03T10:51:39.953Z,54.33
2018-09-03T10:54:08.899Z,55.23
2018-09-03T10:56:37.843Z,56.37
2018-09-03T10:59:06.883Z,54.44
2018-09-03T11:01:35.862Z,55.77
2018-09-03T11:04:04.781Z,55.46
2018-09-03T11:06:33.855Z,54.39
2018-09-03T11:09:02.877Z,55.90
2018-09-03T11:11:31.834Z,54.23
2018-09-03T11:14:00.839Z,55.17
2018-09-03T11:16:29.916Z,55.01
2018-09-03T11:18:58.959Z,54.81
2018-09-03T11:21:28.174Z,55.60
2018-09-03T11:23:56.987Z,56.42
2018-09-03T11:26:26.226Z,55.52
2018-09-03T11:28:55.314Z,57.33
2018-09-03T11:31:24.656Z,58.00
2018-09-03T11:33:53.584Z,57.95
2018-09-03T11:36:22.606Z,58.09
2018-09-03T11:38:51.642Z,58.73
2018-09-03T11:41:27.273Z,59.08
2018-09-03T11:43:56.234Z,59.44
2018-09-03T11:46:25.206Z,59.42
2018-09-03T11:48:54.274Z,59.27
2018-09-03T11:51:23.338Z,59.45
2018-09-03T11:53:52.306Z,59.13
2018-09-03T11:56:21.635Z,59.64
2018-09-03T11:58:50.710Z,59.00
2018-09-03T12:01:19.665Z,61.17
2018-09-03T12:03:48.665Z,59.60
2018-09-03T12:06:17.629Z,60.51
2018-09-03T12:08:46.574Z,61.08
2018-09-03T12:11:15.601Z,60.55
2018-09-03T12:13:44.561Z,60.92
2018-09-03T12:16:16.727Z,62.16
2018-09-03T12:18:46.118Z,61.75
2018-09-03T12:21:15.781Z,60.79
2018-09-03T12:23:45.050Z,61.22
2018-09-03T12:26:14.022Z,62.50
2018-09-03T12:28:43.011Z,64.37
2018-09-03T12:31:12.040Z,66.22
2018-09-03T12:33:41.046Z,68.12
2018-09-03T12:36:10.151Z,69.81
2018-09-03T12:38:39.770Z,71.43
2018-09-03T12:41:09.309Z,73.12
2018-09-03T12:43:38.413Z,74.23
2018-09-03T12:46:08.240Z,74.37
2018-09-03T12:48:37.180Z,75.21
2018-09-03T12:51:06.480Z,75.82
2018-09-03T12:53:35.547Z,75.72
2018-09-03T12:56:04.751Z,76.44
2018-09-03T12:58:33.766Z,76.71
2018-09-03T13:01:02.716Z,75.64
2018-09-03T13:03:31.702Z,76.43
2018-09-03T13:06:00.697Z,75.00
2018-09-03T13:08:29.669Z,73.95
2018-09-03T13:10:58.688Z,74.95
2018-09-03T13:13:27.708Z,73.43
2018-09-03T13:15:56.769Z,72.34
2018-09-03T13:18:25.803Z,72.27
2018-09-03T13:20:54.749Z,70.50
2018-09-03T13:23:23.775Z,68.82
2018-09-03T13:25:52.761Z,67.00
2018-09-03T13:28:21.709Z,66.88
2018-09-03T13:30:50.765Z,65.38
2018-09-03T13:33:19.757Z,66.81
2018-09-03T13:35:48.736Z,63.62
2018-09-03T13:38:17.720Z,61.11
2018-09-03T13:40:46.700Z,59.82
2018-09-03T13:43:15.809Z,58.15
2018-09-03T13:45:44.790Z,58.00
2018-09-03T13:48:13.772Z,56.68
2018-09-03T13:50:42.779Z,55.30
2018-09-03T13:53:11.815Z,54.77
2018-09-03T13:55:40.861Z,53.06
2018-09-03T13:58:09.805Z,50.29
2018-09-03T14:00:38.788Z,50.55
2018-09-03T14:03:07.782Z,53.82
2018-09-03T14:05:36.762Z,54.11
2018-09-03T14:08:05.730Z,53.29
2018-09-03T14:10:34.756Z,54.32
2018-09-03T14:13:03.832Z,55.34
2018-09-03T14:15:32.943Z,55.31
2018-09-03T14:18:01.983Z,55.16
2018-09-03T14:20:30.955Z,53.82
2018-09-03T14:22:59.935Z,54.71
2018-09-03T14:25:28.925Z,54.62
2018-09-03T14:27:58.049Z,54.53
2018-09-03T14:30:27.041Z,56.41
2018-09-03T14:32:56.042Z,57.01
2018-09-03T14:35:25.034Z,53.41
2018-09-03T14:37:54.026Z,50.28
2018-09-03T14:40:23.051Z,50.82
2018-09-03T14:42:52.059Z,51.55
2018-09-03T14:45:21.069Z,51.71
2018-09-03T14:47:49.995Z,50.87
2018-09-03T14:50:19.270Z,51.79
2018-09-03T14:52:48.246Z,52.77
2018-09-03T14:55:17.214Z,51.91
2018-09-03T14:57:46.328Z,52.54
2018-09-03T15:00:15.252Z,52.98
2018-09-03T15:02:44.228Z,53.41
2018-09-03T15:05:13.209Z,54.72
2018-09-03T15:07:42.254Z,54.11
2018-09-03T15:10:11.200Z,54.08
2018-09-03T15:12:40.231Z,54.45
2018-09-03T15:15:09.413Z,54.77
2018-09-03T15:17:38.371Z,55.42
2018-09-03T15:20:07.352Z,56.53
2018-09-03T15:22:36.589Z,56.22
2018-09-03T15:25:05.558Z,55.63
2018-09-03T15:27:34.507Z,56.88
2018-09-03T15:30:03.493Z,58.22
2018-09-03T15:32:32.488Z,55.43
2018-09-03T15:35:01.492Z,55.57
2018-09-03T15:37:30.503Z,54.69
2018-09-03T15:39:59.540Z,55.13
2018-09-03T15:42:28.622Z,55.22
2018-09-03T15:44:57.891Z,55.22
2018-09-03T15:47:26.841Z,54.14
2018-09-03T15:49:56.156Z,54.99
2018-09-03T15:52:25.133Z,54.98
2018-09-03T15:54:57.920Z,54.43
2018-09-03T15:57:27.267Z,53.46
2018-09-03T15:59:56.244Z,53.60
2018-09-03T16:02:25.214Z,53.66
2018-09-03T16:04:54.167Z,54.42
2018-09-03T16:07:23.195Z,54.84
2018-09-03T16:09:52.224Z,55.59
2018-09-03T16:12:21.145Z,55.22
2018-09-03T16:14:50.116Z,55.24
2018-09-03T16:17:19.069Z,55.16
2018-09-03T16:19:48.017Z,55.44
2018-09-03T16:22:16.994Z,55.65
2018-09-03T16:24:45.938Z,56.25
2018-09-03T16:27:15.165Z,57.16
2018-09-03T16:29:44.054Z,56.81
2018-09-03T16:32:13.095Z,56.55
2018-09-03T16:34:42.086Z,56.75
2018-09-03T16:37:11.050Z,57.09
2018-09-03T16:39:40.045Z,57.13
2018-09-03T16:42:09.137Z,58.11
2018-09-03T16:44:38.743Z,58.58
2018-09-03T16:47:08.075Z,59.51
2018-09-03T16:49:37.002Z,59.38
2018-09-03T16:52:06.055Z,58.81
2018-09-03T16:54:35.064Z,59.12
2018-09-03T16:57:04.155Z,59.50
2018-09-03T16:59:33.131Z,59.47
2018-09-03T17:02:02.287Z,60.69
2018-09-03T17:04:31.284Z,60.32
2018-09-03T17:07:00.246Z,61.69
2018-09-03T17:09:29.251Z,62.85
2018-09-03T17:11:58.268Z,63.80
2018-09-03T17:14:27.349Z,64.94
2018-09-03T17:16:56.373Z,65.22
2018-09-03T17:19:25.346Z,65.42
2018-09-03T17:21:54.320Z,63.19
2018-09-03T17:24:23.303Z,64.46
2018-09-03T17:26:52.611Z,64.32
2018-09-03T17:29:21.758Z,63.70
2018-09-03T17:31:50.707Z,63.78
2018-09-03T17:34:19.696Z,65.68
2018-09-03T17:36:48.733Z,65.61
2018-09-03T17:39:17.678Z,63.48
2018-09-03T17:41:46.743Z,64.59
2018-09-03T17:44:15.728Z,65.17
2018-09-03T17:46:44.668Z,64.89
2018-09-03T17:49:13.679Z,64.93
2018-09-03T17:51:42.646Z,65.32
2018-09-03T17:54:11.707Z,66.57
2018-09-03T17:56:40.713Z,67.13
2018-09-03T17:59:09.685Z,67.43
2018-09-03T18:01:38.876Z,68.92
2018-09-03T18:04:07.921Z,69.35
2018-09-03T18:06:36.897Z,69.08
2018-09-03T18:09:06.707Z,70.55
2018-09-03T18:11:35.921Z,70.31
2018-09-03T18:14:04.923Z,69.61
2018-09-03T18:16:33.903Z,71.21
2018-09-03T18:19:02.853Z,69.99
2018-09-03T18:21:31.936Z,70.34
2018-09-03T18:24:00.887Z,72.05
2018-09-03T18:26:29.871Z,72.50
2018-09-03T18:28:59.101Z,71.62
2018-09-03T18:31:29.653Z,71.74
2018-09-03T18:33:58.601Z,72.33
2018-09-03T18:36:27.564Z,73.00
2018-09-03T18:38:56.529Z,73.04
2018-09-03T18:41:25.464Z,73.04
2018-09-03T18:43:54.425Z,71.90
2018-09-03T18:46:23.381Z,71.64
2018-09-03T18:48:52.322Z,72.73
2018-09-03T18:51:21.447Z,73.84
2018-09-03T18:53:50.365Z,72.94
2018-09-03T18:56:19.842Z,74.47
2018-09-03T18:58:48.779Z,74.41
2018-09-03T19:01:17.726Z,75.33
2018-09-03T19:03:46.716Z,75.13
2018-09-03T19:06:15.753Z,75.44
2018-09-03T19:08:44.686Z,75.44
2018-09-03T19:11:13.679Z,75.57
2018-09-03T19:13:42.607Z,75.50
2018-09-03T19:16:11.781Z,75.56
2018-09-03T19:18:40.757Z,76.55
2018-09-03T19:21:09.756Z,75.99
2018-09-03T19:23:38.822Z,75.31
2018-09-03T19:26:07.979Z,75.48
2018-09-03T19:28:37.118Z,74.95
2018-09-03T19:31:05.986Z,75.25
2018-09-03T19:33:35.247Z,74.04
2018-09-03T19:36:04.267Z,74.97
2018-09-03T19:38:33.430Z,75.63
2018-09-03T19:41:02.393Z,75.59
2018-09-03T19:43:46.193Z,75.95
2018-09-03T19:46:15.259Z,76.66
2018-09-03T19:48:44.265Z,76.28
2018-09-03T19:51:13.256Z,75.36
2018-09-03T19:53:43.756Z,76.48
2018-09-03T19:56:13.335Z,77.39
2018-09-03T19:58:42.513Z,79.61
2018-09-03T20:01:11.485Z,78.84
2018-09-03T20:03:40.471Z,79.07
2018-09-03T20:06:09.480Z,79.88
2018-09-03T20:08:38.584Z,80.07
2018-09-03T20:11:07.809Z,79.63
2018-09-03T20:13:36.786Z,80.42
2018-09-03T20:16:06.089Z,80.37
2018-09-03T20:18:35.169Z,80.56
2018-09-03T20:21:04.265Z,81.57
2018-09-03T20:23:33.626Z,80.89
2018-09-03T20:26:02.920Z,81.31
2018-09-03T20:28:32.182Z,82.80
2018-09-03T20:31:01.359Z,82.88
2018-09-03T20:33:30.409Z,83.05
2018-09-03T20:35:59.534Z,84.31
2018-09-03T20:38:28.611Z,84.77
2018-09-03T20:40:57.765Z,83.99
2018-09-03T20:43:26.726Z,83.08
2018-09-03T20:45:55.749Z,82.79
2018-09-03T20:48:24.822Z,82.28
2018-09-03T20:50:53.856Z,82.74
2018-09-03T20:53:22.797Z,84.22
2018-09-03T20:55:51.775Z,83.13
2018-09-03T20:58:20.735Z,84.32
2018-09-03T21:00:49.690Z,84.82
2018-09-03T21:03:18.679Z,84.54
2018-09-03T21:05:47.671Z,85.17
2018-09-03T21:08:16.722Z,86.40
2018-09-03T21:10:45.689Z,86.67
2018-09-03T21:13:14.629Z,85.75
2018-09-03T21:15:43.585Z,85.56
2018-09-03T21:18:12.580Z,85.65
2018-09-03T21:20:41.762Z,84.59
2018-09-03T21:23:10.729Z,86.08
2018-09-03T21:25:39.826Z,86.38
2018-09-03T21:28:08.797Z,86.53
2018-09-03T21:30:37.815Z,87.20
2018-09-03T21:33:06.832Z,87.25
2018-09-03T21:35:35.852Z,87.49
2018-09-03T21:38:04.826Z,87.73
2018-09-03T21:40:34.023Z,87.87
2018-09-03T21:43:03.117Z,88.53
2018-09-03T21:45:32.098Z,88.64
2018-09-03T21:48:01.032Z,88.08
2018-09-03T21:50:30.193Z,87.86
2018-09-03T21:52:59.176Z,88.51
2018-09-03T21:55:28.261Z,88.44
2018-09-03T21:57:57.257Z,88.23
2018-09-03T22:00:26.253Z,88.45
2018-09-03T22:02:55.425Z,87.99
2018-09-03T22:05:27.219Z,88.75
2018-09-03T22:07:56.293Z,89.51
2018-09-03T22:10:25.271Z,89.80
2018-09-03T22:12:54.313Z,89.59
2018-09-03T22:15:23.679Z,90.59
2018-09-03T22:17:52.971Z,90.50
2018-09-03T22:20:22.013Z,90.30
2018-09-03T22:22:51.006Z,90.70
2018-09-03T22:25:20.063Z,89.07
2018-09-03T22:27:49.173Z,90.10
2018-09-03T22:30:18.258Z,89.63
2018-09-03T22:32:48.871Z,91.21
2018-09-03T22:35:17.879Z,91.35
2018-09-03T22:37:46.944Z,92.30
2018-09-03T22:40:15.906Z,93.01
2018-09-03T22:42:44.842Z,92.94
2018-09-03T22:45:13.773Z,93.62
2018-09-03T22:47:42.829Z,93.74
2018-09-03T22:50:11.825Z,94.81
2018-09-03T22:52:41.382Z,93.81
2018-09-03T22:55:10.340Z,95.00
2018-09-03T22:57:40.352Z,95.55
2018-09-03T23:00:09.281Z,95.50
2018-09-03T23:02:45.981Z,96.32
2018-09-03T23:05:14.923Z,96.27
2018-09-03T23:07:43.885Z,97.59
2018-09-03T23:10:12.857Z,97.05
2018-09-03T23:12:41.919Z,97.85
2018-09-03T23:15:11.041Z,98.51
2018-09-03T23:17:40.046Z,98.80
2018-09-03T23:20:08.989Z,98.65
2018-09-03T23:22:37.953Z,99.22
2018-09-03T23:25:06.935Z,99.16
2018-09-03T23:27:35.882Z,100.00
2018-09-03T23:30:04.897Z,99.84
2018-09-03T23:32:33.850Z,100.00
2018-09-03T23:35:02.793Z,99.76
2018-09-03T23:37:31.731Z,99.75
2018-09-03T23:40:00.661Z,99.37
2018-09-03T23:42:29.660Z,100.00
2018-09-03T23:44:58.605Z,99.67
2018-09-03T23:47:27.555Z,100.00
2018-09-03T23:49:56.523Z,100.00
2018-09-03T23:52:25.529Z,100.00
2018-09-03T23:54:54.470Z,100.00
2018-09-03T23:57:23.428Z,100.00
2018-09-03T23:59:52.383Z,100.00
